Time;durP1;ratioP1;P1;durP2;ratioP2;P2;SDS_P1;SDS_P2;PMS_P1;PMS_P2;Temp;Humidity;BMP_temperature;BMP_pressure;BME280_temperature;BME280_humidity;BME280_pressure;Samples;Min_cycle;Max_cycle;Signal;HPM_P1;HPM_P2
2022/06/20 00:00:30;;;;;;;31.58;16.58;;;;;;;20.89;94.70;94825.34;5041268;28;20064;-77
2022/06/20 00:03:03;;;;;;;32.45;17.13;;;;;;;21.00;94.40;94830.13;5031306;28;20033;-77
2022/06/20 00:05:31;;;;;;;42.42;16.30;;;;;;;20.84;94.14;94828.31;5047517;28;20041;-76
2022/06/20 00:07:57;;;;;;;30.77;17.50;;;;;;;20.70;95.35;94822.66;5049511;28;20049;-76
2022/06/20 00:10:24;;;;;;;30.10;16.45;;;;;;;20.71;96.01;94818.88;5038975;28;20710;-76
2022/06/20 00:12:51;;;;;;;31.85;17.30;;;;;;;20.57;96.52;94820.13;5028239;28;20414;-76
2022/06/20 00:15:36;;;;;;;34.03;17.20;;;;;;;20.60;96.64;94823.97;5046410;28;20041;-75
2022/06/20 00:18:05;;;;;;;34.83;17.92;;;;;;;20.66;97.20;94827.94;5031300;28;20457;-76
2022/06/20 00:20:31;;;;;;;31.70;16.73;;;;;;;20.66;96.95;94822.59;5029297;28;20049;-76
2022/06/20 00:22:57;;;;;;;33.60;17.08;;;;;;;20.65;96.90;94822.94;5049082;28;20134;-76
2022/06/20 00:25:23;;;;;;;32.78;17.60;;;;;;;20.63;96.89;94822.50;5048670;28;20506;-76
2022/06/20 00:27:51;;;;;;;33.22;16.83;;;;;;;20.58;97.02;94810.94;5049427;28;20041;-76
2022/06/20 00:30:18;;;;;;;36.33;17.63;;;;;;;20.48;97.50;94811.50;5038776;28;20037;-76
2022/06/20 00:32:43;;;;;;;36.83;17.55;;;;;;;20.43;98.44;94809.13;5045877;28;20062;-76
2022/06/20 00:35:10;;;;;;;27.50;16.55;;;;;;;20.50;98.05;94817.28;5064940;28;20037;-75
2022/06/20 00:37:36;;;;;;;37.88;17.55;;;;;;;20.41;98.12;94811.34;5060995;28;20048;-76
2022/06/20 00:40:04;;;;;;;32.90;16.95;;;;;;;20.45;97.94;94819.47;5034610;28;20044;-76
2022/06/20 00:42:30;;;;;;;31.35;16.65;;;;;;;20.21;98.13;94819.34;5047363;28;20037;-76
2022/06/20 00:45:03;;;;;;;30.70;15.82;;;;;;;20.28;99.07;94818.72;5050336;28;20445;-76
2022/06/20 00:47:32;;;;;;;27.70;16.70;;;;;;;20.23;99.52;94806.41;5065604;28;20098;-76
2022/06/20 00:50:14;;;;;;;29.10;16.55;;;;;;;20.16;99.32;94811.59;5057056;28;20037;-76
2022/06/20 00:52:44;;;;;;;31.92;17.40;;;;;;;20.06;100.00;94812.13;5032186;28;20064;-77
2022/06/20 00:55:13;;;;;;;36.55;17.55;;;;;;;19.98;100.00;94810.41;5032897;28;20036;-76
2022/06/20 00:58:04;;;;;;;34.65;17.20;;;;;;;20.04;100.00;94803.66;5065030;28;20063;-76
2022/06/20 01:00:35;;;;;;;35.95;17.25;;;;;;;20.09;99.92;94800.75;5052986;28;20041;-76
2022/06/20 01:03:11;;;;;;;37.70;17.60;;;;;;;19.94;100.00;94798.88;5056891;28;20071;-76
2022/06/20 01:05:47;;;;;;;38.63;18.00;;;;;;;19.87;100.00;94800.25;5030325;28;20391;-76
2022/06/20 01:08:25;;;;;;;37.83;16.40;;;;;;;19.71;100.00;94807.47;5063824;28;20532;-76
2022/06/20 01:11:06;;;;;;;35.83;17.80;;;;;;;19.71;100.00;94808.25;5045354;28;20037;-76
2022/06/20 01:13:32;;;;;;;30.15;17.15;;;;;;;19.81;100.00;94812.31;5046639;28;20037;-76
2022/06/20 01:16:05;;;;;;;31.42;17.75;;;;;;;19.85;100.00;94807.81;5048209;28;20075;-76
2022/06/20 01:18:34;;;;;;;35.33;18.45;;;;;;;19.89;100.00;94808.69;5037703;28;20136;-76
2022/06/20 01:21:02;;;;;;;37.42;17.70;;;;;;;19.70;100.00;94800.59;5032353;28;20047;-76
2022/06/20 01:24:05;;;;;;;31.50;17.58;;;;;;;19.71;100.00;94802.13;5058867;28;20040;-76
2022/06/20 01:26:38;;;;;;;37.80;18.30;;;;;;;19.68;100.00;94800.13;5006032;28;20061;-76
2022/06/20 01:29:07;;;;;;;29.83;17.55;;;;;;;19.55;100.00;94810.13;5059151;28;20082;-76
2022/06/20 01:31:39;;;;;;;30.88;17.75;;;;;;;19.53;100.00;94797.13;5055794;28;20102;-76
2022/06/20 01:34:05;;;;;;;34.97;17.73;;;;;;;19.59;100.00;94813.66;5060353;28;20047;-76
2022/06/20 01:39:21;;;;;;;33.22;17.33;;;;;;;19.45;100.00;94806.09;5045278;28;20041;-77
2022/06/20 01:44:39;;;;;;;32.20;17.30;;;;;;;19.62;100.00;94809.53;5060262;28;20048;-76
2022/06/20 01:47:04;;;;;;;30.42;17.42;;;;;;;19.64;100.00;94807.28;5055925;28;20040;-76
2022/06/20 01:49:32;;;;;;;35.05;18.08;;;;;;;19.64;100.00;94808.06;5064710;28;20067;-76
2022/06/20 01:52:23;;;;;;;36.45;17.42;;;;;;;19.53;100.00;94802.47;5072405;28;20052;-76
2022/06/20 01:54:54;;;;;;;37.17;18.25;;;;;;;19.49;100.00;94800.84;5052935;28;20050;-76
2022/06/20 01:57:21;;;;;;;35.92;17.25;;;;;;;19.38;100.00;94813.91;5061910;28;20041;-76
2022/06/20 01:59:59;;;;;;;35.28;18.05;;;;;;;19.23;100.00;94814.66;5061513;28;20060;-75
2022/06/20 02:02:27;;;;;;;34.47;17.48;;;;;;;19.38;100.00;94816.59;5054358;28;20044;-76
2022/06/20 02:04:52;;;;;;;33.33;17.85;;;;;;;19.37;100.00;94831.03;5055943;28;20041;-76
2022/06/20 02:07:19;;;;;;;39.78;17.88;;;;;;;19.46;100.00;94844.22;5062355;28;20041;-75
2022/06/20 02:09:44;;;;;;;33.78;17.05;;;;;;;19.58;100.00;94848.69;5045764;28;20044;-77
2022/06/20 02:12:12;;;;;;;33.60;18.17;;;;;;;19.56;100.00;94844.47;5040545;28;20048;-76
2022/06/20 02:14:44;;;;;;;31.83;18.38;;;;;;;19.58;100.00;94846.78;5056871;28;20044;-77
2022/06/20 02:17:18;;;;;;;31.60;17.35;;;;;;;19.48;100.00;94842.75;5051090;28;20036;-75
2022/06/20 02:19:47;;;;;;;34.20;17.85;;;;;;;19.47;100.00;94843.88;5056149;28;20044;-76
2022/06/20 02:22:17;;;;;;;34.15;17.58;;;;;;;19.42;100.00;94838.00;5052299;28;20037;-75
2022/06/20 02:24:49;;;;;;;32.55;17.13;;;;;;;19.53;100.00;94839.81;5035558;28;20045;-76
2022/06/20 02:27:24;;;;;;;34.47;17.58;;;;;;;19.62;100.00;94820.97;5060430;28;20110;-76
2022/06/20 02:29:49;;;;;;;34.33;15.70;;;;;;;19.77;97.66;94827.44;5046092;28;20124;-76
2022/06/20 02:32:19;;;;;;;30.58;15.90;;;;;;;19.90;95.52;94830.84;5042987;28;20442;-75
2022/06/20 02:34:45;;;;;;;32.08;15.27;;;;;;;20.01;93.73;94825.72;5062938;28;20495;-76
2022/06/20 02:37:14;;;;;;;31.95;15.00;;;;;;;20.17;90.46;94817.69;5059781;28;20044;-76
2022/06/20 02:39:42;;;;;;;38.80;15.07;;;;;;;20.40;89.53;94820.47;5040486;28;20076;-75
2022/06/20 02:42:12;;;;;;;39.13;15.00;;;;;;;20.51;87.17;94818.81;5034441;28;20056;-75
2022/06/20 02:44:42;;;;;;;31.05;14.50;;;;;;;20.72;84.36;94826.53;5057424;28;20045;-76
2022/06/20 02:47:08;;;;;;;42.58;14.57;;;;;;;20.82;83.85;94830.56;5051862;28;20593;-76
2022/06/20 02:49:36;;;;;;;38.75;14.85;;;;;;;20.89;83.39;94824.59;5064953;28;20406;-76
2022/06/20 02:52:06;;;;;;;34.90;13.90;;;;;;;20.96;81.92;94818.59;5055609;28;20037;-76
2022/06/20 02:54:34;;;;;;;29.55;15.07;;;;;;;20.88;83.39;94813.09;5014722;28;20518;-76
2022/06/20 02:57:13;;;;;;;35.08;14.63;;;;;;;20.81;82.90;94818.31;5038071;28;20052;-76
2022/06/20 02:59:47;;;;;;;37.15;13.88;;;;;;;20.89;82.70;94820.00;5036812;28;20044;-76
2022/06/20 03:02:17;;;;;;;34.45;13.57;;;;;;;20.92;82.04;94821.97;5056142;28;20048;-76
2022/06/20 03:04:45;;;;;;;40.75;13.90;;;;;;;20.75;83.33;94825.06;5047492;28;20052;-75
2022/06/20 03:07:20;;;;;;;29.35;13.30;;;;;;;20.73;84.43;94821.97;5049977;28;20065;-77
2022/06/20 03:09:49;;;;;;;38.95;15.30;;;;;;;20.52;84.94;94822.28;5044141;28;20414;-76
2022/06/20 03:12:15;;;;;;;35.50;13.27;;;;;;;20.60;85.83;94814.06;5045635;28;20491;-77
2022/06/20 03:14:53;;;;;;;31.77;13.60;;;;;;;20.37;88.39;94816.63;5050269;28;20124;-76
2022/06/20 03:17:20;;;;;;;36.22;14.30;;;;;;;20.23;88.68;94819.75;5053412;28;20037;-75
2022/06/20 03:19:54;;;;;;;31.23;13.57;;;;;;;20.09;89.82;94824.78;5067957;28;20040;-76
2022/06/20 03:22:23;;;;;;;35.13;13.93;;;;;;;19.99;89.62;94819.97;5055593;28;20048;-76
2022/06/20 03:24:51;;;;;;;35.58;15.20;;;;;;;19.89;90.20;94824.72;5031775;28;20112;-76
2022/06/20 03:27:23;;;;;;;28.23;13.65;;;;;;;19.76;90.94;94820.56;5048987;28;20102;-76
2022/06/20 03:29:54;;;;;;;31.60;14.10;;;;;;;19.70;90.85;94829.94;5058559;28;20459;-76
2022/06/20 03:32:23;;;;;;;32.28;13.90;;;;;;;19.73;92.84;94831.94;5032320;28;20418;-77
2022/06/20 03:34:48;;;;;;;33.25;14.45;;;;;;;19.93;92.78;94832.06;5062454;28;20048;-76
2022/06/20 03:37:14;;;;;;;30.58;13.88;;;;;;;19.79;92.84;94830.56;5049696;28;20036;-77
2022/06/20 03:39:40;;;;;;;37.65;14.15;;;;;;;19.81;93.61;94823.00;5034628;28;20063;-76
2022/06/20 03:42:06;;;;;;;31.65;13.85;;;;;;;19.71;92.83;94828.81;5066556;28;20102;-76
2022/06/20 03:44:36;;;;;;;27.20;13.70;;;;;;;19.76;93.42;94817.88;5049942;28;20560;-76
2022/06/20 03:47:07;;;;;;;28.75;14.35;;;;;;;19.82;94.09;94824.53;5064033;28;20040;-77
2022/06/20 03:49:48;;;;;;;30.25;14.25;;;;;;;19.72;94.13;94814.34;5067065;28;20469;-76
2022/06/20 03:52:27;;;;;;;31.00;13.93;;;;;;;19.75;92.94;94824.34;5036485;28;20033;-76
2022/06/20 03:55:07;;;;;;;41.22;15.27;;;;;;;19.77;93.67;94822.13;5064391;28;20044;-76
2022/06/20 03:57:41;;;;;;;30.92;14.70;;;;;;;19.98;93.02;94831.78;5066995;28;20044;-76
2022/06/20 04:00:13;;;;;;;39.00;14.40;;;;;;;19.99;91.61;94828.00;5051339;28;20572;-76
2022/06/20 04:03:24;;;;;;;30.63;14.15;;;;;;;19.93;91.43;94829.38;5053773;28;20036;-77
2022/06/20 04:06:02;;;;;;;36.20;14.85;;;;;;;19.87;93.36;94834.97;4960251;28;20050;-76
2022/06/20 04:11:26;;;;;;;41.75;15.02;;;;;;;19.96;89.63;94834.78;5054126;28;20047;-77
2022/06/20 04:14:01;;;;;;;29.45;13.77;;;;;;;20.00;92.20;94840.22;5057117;28;20055;-77
2022/06/20 04:16:36;;;;;;;33.17;14.80;;;;;;;20.02;93.39;94832.63;5057135;28;20043;-77
2022/06/20 04:19:13;;;;;;;32.35;14.48;;;;;;;20.02;93.46;94848.66;5059546;28;20041;-76
2022/06/20 04:22:01;;;;;;;30.30;14.25;;;;;;;20.01;94.24;94847.88;5033823;28;20037;-77
2022/06/20 04:24:34;;;;;;;27.13;14.48;;;;;;;20.03;95.53;94850.22;5045190;28;20751;-77
2022/06/20 04:27:12;;;;;;;26.00;13.73;;;;;;;20.03;96.79;94844.88;5038527;28;20039;-77
2022/06/20 04:29:40;;;;;;;31.25;14.00;;;;;;;20.18;92.70;94849.41;5049069;28;20049;-77
2022/06/20 04:32:20;;;;;;;36.47;15.00;;;;;;;20.22;95.31;94852.94;5047512;28;20075;-78
2022/06/20 04:34:57;;;;;;;37.40;15.88;;;;;;;20.33;93.63;94849.72;5036267;28;20047;-75
2022/06/20 04:37:39;;;;;;;31.55;15.02;;;;;;;20.50;93.75;94856.59;5042720;28;20044;-76
2022/06/20 04:40:19;;;;;;;34.83;15.15;;;;;;;20.67;92.24;94866.16;5071494;28;20032;-73
2022/06/20 04:42:48;;;;;;;40.55;14.80;;;;;;;21.00;85.57;94873.69;5071669;28;20055;-75
2022/06/20 04:45:16;;;;;;;31.98;13.88;;;;;;;21.19;84.93;94886.31;5089215;28;20048;-74
2022/06/20 04:47:51;;;;;;;34.35;14.27;;;;;;;21.43;82.85;94889.81;5079626;28;20024;-75
2022/06/20 04:50:21;;;;;;;37.47;15.07;;;;;;;21.86;80.05;94890.59;5071566;28;20030;-74
2022/06/20 04:52:50;;;;;;;37.53;14.52;;;;;;;22.14;77.70;94890.31;5078770;28;20037;-74
2022/06/20 04:55:21;;;;;;;30.23;14.25;;;;;;;22.38;76.75;94890.31;5091720;28;20059;-75
2022/06/20 04:57:48;;;;;;;30.17;13.20;;;;;;;22.53;76.15;94889.38;5084129;28;20096;-74
2022/06/20 05:00:25;;;;;;;32.63;14.63;;;;;;;22.72;75.78;94893.09;5073342;28;20052;-74
2022/06/20 05:02:54;;;;;;;32.30;13.90;;;;;;;22.88;74.53;94892.91;5084307;28;20020;-73
2022/06/20 05:05:24;;;;;;;35.80;14.18;;;;;;;22.90;74.40;94891.41;5089866;28;20067;-74
2022/06/20 05:07:50;;;;;;;30.13;13.85;;;;;;;23.13;71.95;94898.59;5081703;28;20046;-75
2022/06/20 05:10:48;;;;;;;30.17;13.98;;;;;;;23.25;71.73;94901.06;5077518;28;20035;-74
2022/06/20 05:13:22;;;;;;;35.58;14.57;;;;;;;23.26;70.14;94897.25;5069561;28;20103;-74
2022/06/20 05:15:49;;;;;;;;;;;;;;;23.32;68.74;94903.06;5083205;28;20041;-73
2022/06/20 05:18:23;;;;;;;30.60;12.98;;;;;;;23.50;67.10;94911.31;5094875;28;19944;-74
2022/06/20 05:20:55;;;;;;;36.65;14.05;;;;;;;23.65;64.53;94907.63;5091235;28;20033;-74
2022/06/20 05:23:31;;;;;;;34.13;13.00;;;;;;;23.58;65.25;94912.94;5071143;28;20020;-74
2022/06/20 05:26:00;;;;;;;25.20;11.88;;;;;;;23.59;65.06;94919.88;5077251;28;20040;-74
2022/06/20 05:28:28;;;;;;;41.33;12.63;;;;;;;23.58;65.57;94923.69;5074480;28;20036;-74
2022/06/20 05:30:54;;;;;;;37.83;12.30;;;;;;;23.66;64.39;94924.50;5088299;28;20100;-74
2022/06/20 05:33:29;;;;;;;30.52;11.88;;;;;;;23.70;65.34;94915.38;5080328;28;20058;-75
2022/06/20 05:35:59;;;;;;;32.63;12.02;;;;;;;23.69;66.16;94929.16;5078691;28;20170;-74
2022/06/20 05:38:32;;;;;;;34.08;12.35;;;;;;;23.85;64.55;94935.09;5095313;28;20030;-75
2022/06/20 05:41:00;;;;;;;31.58;12.05;;;;;;;23.89;62.67;94943.19;5077387;28;20029;-74
2022/06/20 05:43:29;;;;;;;37.03;12.10;;;;;;;23.99;63.12;94947.94;5078730;28;20313;-74
2022/06/20 05:46:04;;;;;;;32.30;11.55;;;;;;;23.97;61.95;94950.19;5084615;28;20028;-75
2022/06/20 05:48:59;;;;;;;27.08;11.50;;;;;;;24.13;59.44;94951.88;5088500;28;20029;-80
2022/06/20 05:51:27;;;;;;;33.95;11.85;;;;;;;24.08;60.19;94960.25;5072426;28;20025;-80
2022/06/20 05:53:57;;;;;;;29.50;11.07;;;;;;;24.14;58.61;94964.19;5094865;28;20031;-76
2022/06/20 05:56:35;;;;;;;24.88;10.85;;;;;;;24.20;59.63;94970.75;5067379;28;20041;-75
2022/06/20 05:59:01;;;;;;;27.50;11.25;;;;;;;24.31;57.95;94968.94;5062265;28;20079;-77
2022/06/20 06:01:37;;;;;;;32.58;10.32;;;;;;;24.34;56.98;94984.31;5058400;28;20052;-79
2022/06/20 06:04:24;;;;;;;33.80;11.40;;;;;;;24.41;57.53;94980.16;5039750;28;20048;-80
2022/06/20 06:06:56;;;;;;;32.28;12.10;;;;;;;24.38;58.01;94990.50;5058764;28;20067;-81
2022/06/20 06:09:42;;;;;;;27.73;11.10;;;;;;;24.35;57.85;95002.00;5059151;28;20419;-80
2022/06/20 06:12:13;;;;;;;29.33;11.00;;;;;;;24.32;57.48;95008.13;5038686;28;20578;-79
2022/06/20 06:14:51;;;;;;;29.67;11.10;;;;;;;24.28;57.34;95018.09;5056688;28;20041;-78
2022/06/20 06:17:56;;;;;;;24.42;10.55;;;;;;;24.29;58.40;95016.91;5055213;28;20522;-78
2022/06/20 06:20:25;;;;;;;25.10;10.45;;;;;;;24.41;56.92;95004.34;5009328;28;20061;-78
2022/06/20 06:22:59;;;;;;;30.52;10.93;;;;;;;24.49;57.90;95022.09;5050614;28;20037;-78
2022/06/20 06:25:36;;;;;;;25.98;10.43;;;;;;;24.59;56.37;95026.03;5054813;28;20037;-79
2022/06/20 06:28:07;;;;;;;22.35;10.75;;;;;;;24.57;57.31;95029.09;5032152;28;20178;-81
2022/06/20 06:30:48;;;;;;;20.30;10.75;;;;;;;24.65;57.29;95025.34;5038078;28;20051;-83
2022/06/20 06:33:37;;;;;;;28.55;10.00;;;;;;;24.69;57.88;95038.81;5054315;28;20112;-81
2022/06/20 06:36:14;;;;;;;26.05;10.07;;;;;;;24.72;57.65;95040.75;5055613;28;20116;-84
2022/06/20 06:38:45;;;;;;;30.02;10.68;;;;;;;24.77;57.19;95047.72;5019888;28;20053;-80
2022/06/20 06:41:39;;;;;;;33.35;10.95;;;;;;;24.74;58.37;95038.50;5053757;28;20045;-82
2022/06/20 06:44:16;;;;;;;25.00;10.90;;;;;;;24.75;57.79;95039.25;5037027;28;20053;-81
2022/06/20 06:46:46;;;;;;;25.63;10.50;;;;;;;24.76;58.55;95046.19;5053298;28;20282;-82
2022/06/20 06:49:31;;;;;;;25.77;9.88;;;;;;;24.75;58.07;95055.41;5034590;28;20084;-80
2022/06/20 06:52:23;;;;;;;28.88;11.23;;;;;;;24.76;59.79;95067.72;5040295;28;20609;-80
2022/06/20 06:55:17;;;;;;;28.02;10.75;;;;;;;24.66;59.70;95069.91;5050813;28;20086;-81
2022/06/20 06:57:52;;;;;;;30.80;10.93;;;;;;;24.72;58.78;95073.84;5055276;28;20536;-79
2022/06/20 07:00:20;;;;;;;26.45;10.50;;;;;;;24.56;60.43;95081.34;5037479;28;20052;-80
2022/06/20 07:03:00;;;;;;;23.08;10.23;;;;;;;24.52;60.93;95075.16;5054007;28;20059;-81
2022/06/20 07:05:34;;;;;;;30.45;10.80;;;;;;;24.68;59.61;95073.03;5052945;28;20426;-80
2022/06/20 07:08:08;;;;;;;22.45;10.10;;;;;;;24.81;59.16;95067.34;5033234;28;20033;-80
2022/06/20 07:10:47;;;;;;;23.58;10.43;;;;;;;24.88;58.88;95075.47;5032179;28;20041;-81
2022/06/20 07:13:27;;;;;;;31.60;10.55;;;;;;;24.80;59.55;95079.28;5034026;28;20064;-78
2022/06/20 07:15:58;;;;;;;26.65;10.75;;;;;;;24.79;58.91;95083.09;5051089;28;20127;-79
2022/06/20 07:18:36;;;;;;;21.98;10.13;;;;;;;24.71;58.97;95088.44;5034573;28;20049;-78
2022/06/20 07:21:04;;;;;;;23.33;10.90;;;;;;;24.64;57.82;95093.75;5048043;28;20094;-83
2022/06/20 07:23:30;;;;;;;22.50;10.98;;;;;;;24.64;56.84;95093.75;5057478;28;20092;-79
2022/06/20 07:25:56;;;;;;;22.13;9.93;;;;;;;24.68;57.43;95088.38;5048955;28;20121;-79
2022/06/20 07:28:46;;;;;;;23.23;9.95;;;;;;;24.72;57.84;95100.75;5049924;28;20494;-79
2022/06/20 07:31:19;;;;;;;24.75;9.15;;;;;;;24.70;56.45;95091.50;5043764;28;20029;-85
2022/06/20 07:34:08;;;;;;;21.63;9.93;;;;;;;24.96;57.00;95087.09;5048858;28;20044;-77
2022/06/20 07:36:43;;;;;;;28.38;10.55;;;;;;;25.12;56.18;95094.91;5032759;28;20037;-81
2022/06/20 07:39:30;;;;;;;23.55;9.88;;;;;;;25.35;56.36;95097.41;5048291;28;20478;-81
2022/06/20 07:42:01;;;;;;;21.90;10.02;;;;;;;25.64;56.94;95097.56;5021397;28;20029;-81
2022/06/20 07:44:51;;;;;;;25.60;9.70;;;;;;;25.66;55.45;95096.03;5028474;28;20495;-80
2022/06/20 07:47:33;;;;;;;19.73;9.90;;;;;;;25.87;56.78;95100.00;5048155;28;20048;-80
2022/06/20 07:50:04;;;;;;;34.08;10.13;;;;;;;25.83;58.48;95109.97;5050300;28;20037;-82
2022/06/20 07:52:38;;;;;;;25.75;11.25;;;;;;;25.94;56.60;95105.41;5032068;28;20037;-82
2022/06/20 07:55:10;;;;;;;25.05;11.63;;;;;;;26.00;57.70;95098.53;5043124;28;20060;-80
2022/06/20 07:57:43;;;;;;;30.50;11.45;;;;;;;26.14;57.10;95102.44;5033463;28;20037;-81
2022/06/20 08:00:15;;;;;;;26.55;10.60;;;;;;;26.32;56.27;95097.88;5030644;28;20094;-81
2022/06/20 08:03:02;;;;;;;22.98;11.88;;;;;;;26.39;55.42;95103.28;5030112;28;20041;-78
2022/06/20 08:05:35;;;;;;;29.77;11.18;;;;;;;26.30;56.04;95105.56;5046754;28;20056;-80
2022/06/20 08:08:14;;;;;;;24.48;10.63;;;;;;;26.36;56.34;95109.44;5046480;28;20041;-79
2022/06/20 08:10:46;;;;;;;28.48;11.50;;;;;;;26.49;56.93;95111.78;5052064;28;20509;-78
2022/06/20 08:13:29;;;;;;;27.90;10.73;;;;;;;26.53;55.95;95117.97;5043389;28;20537;-78
2022/06/20 08:16:04;;;;;;;21.83;10.07;;;;;;;26.71;53.23;95113.41;5042497;28;20038;-77
2022/06/20 08:18:30;;;;;;;21.48;9.77;;;;;;;26.67;53.45;95117.97;5033090;28;20040;-77
2022/06/20 08:21:08;;;;;;;18.25;8.85;;;;;;;26.67;51.33;95112.59;5051477;28;20490;-78
2022/06/20 08:23:43;;;;;;;19.10;9.43;;;;;;;26.63;53.53;95117.19;5033746;28;20047;-77
2022/06/20 08:26:12;;;;;;;20.63;9.10;;;;;;;26.87;49.75;95123.06;5042120;28;20082;-78
2022/06/20 08:28:48;;;;;;;22.10;8.30;;;;;;;26.92;50.27;95122.66;5037004;28;20041;-78
2022/06/20 08:31:18;;;;;;;23.48;8.55;;;;;;;26.92;48.12;95128.06;5035013;28;20041;-78
2022/06/20 08:33:50;;;;;;;18.77;7.68;;;;;;;26.95;47.71;95116.50;5035626;28;20198;-77
2022/06/20 08:36:22;;;;;;;20.05;8.20;;;;;;;27.01;47.05;95130.38;5054217;28;20095;-78
2022/06/20 08:39:00;;;;;;;17.90;7.90;;;;;;;27.05;48.25;95137.34;5033550;28;20040;-78
2022/06/20 08:41:44;;;;;;;22.33;7.72;;;;;;;27.06;46.46;95144.28;5052321;28;20477;-83
2022/06/20 08:44:43;;;;;;;17.17;7.65;;;;;;;27.16;46.17;95148.13;5050222;28;20037;-78
2022/06/20 08:47:11;;;;;;;23.25;7.82;;;;;;;26.92;45.06;95149.66;5052511;28;20048;-79
2022/06/20 08:49:52;;;;;;;15.07;7.07;;;;;;;26.80;45.36;95148.88;5052456;28;20044;-79
2022/06/20 08:52:58;;;;;;;14.45;7.22;;;;;;;26.79;46.33;95147.34;5050609;28;20041;-78
2022/06/20 08:55:43;;;;;;;25.02;7.82;;;;;;;26.83;45.90;95146.56;5039710;28;20053;-78
2022/06/20 08:58:26;;;;;;;;;;;;;;;26.99;45.36;95144.28;5053402;28;20051;-79
2022/06/20 09:01:12;;;;;;;17.58;7.75;;;;;;;26.95;46.09;95144.28;5051788;28;20366;-79
2022/06/20 09:03:54;;;;;;;17.50;7.10;;;;;;;27.04;47.29;95152.00;5043168;28;20061;-81
2022/06/20 09:06:48;;;;;;;19.75;7.40;;;;;;;27.22;46.29;95146.59;5050103;28;20106;-79
2022/06/20 09:10:02;;;;;;;19.65;7.45;;;;;;;27.03;45.22;95139.66;5052468;28;20102;-78
2022/06/20 09:12:48;;;;;;;21.57;6.57;;;;;;;26.88;45.91;95148.88;5021829;28;20065;-78
2022/06/20 09:15:22;;;;;;;21.33;7.13;;;;;;;27.15;46.24;95146.59;5050063;28;20113;-78
2022/06/20 09:18:00;;;;;;;17.65;7.30;;;;;;;27.22;46.47;95156.63;5035688;28;20053;-78
2022/06/20 09:20:34;;;;;;;21.23;7.43;;;;;;;27.20;44.87;95158.97;5047420;28;20155;-79
2022/06/20 09:23:16;;;;;;;16.48;6.47;;;;;;;27.23;44.13;95147.38;5052759;28;20033;-78
2022/06/20 09:26:08;;;;;;;18.77;6.53;;;;;;;27.40;45.23;95141.22;5053719;28;20116;-78
2022/06/20 09:29:03;;;;;;;13.73;6.50;;;;;;;27.59;43.31;95126.50;5036308;28;20043;-79
2022/06/20 09:31:43;;;;;;;13.63;6.35;;;;;;;27.70;43.63;95133.81;5043793;28;20084;-78
2022/06/20 09:34:29;;;;;;;14.98;6.53;;;;;;;27.70;44.58;95131.91;5037031;28;20033;-78
2022/06/20 09:37:07;;;;;;;13.10;6.32;;;;;;;27.74;45.28;95132.69;5052251;28;20039;-78
2022/06/20 09:39:48;;;;;;;19.25;6.13;;;;;;;28.18;41.98;95134.09;5042072;28;20044;-78
2022/06/20 09:43:03;;;;;;;17.50;6.20;;;;;;;27.99;41.63;95140.72;5050956;28;20044;-78
2022/06/20 09:45:38;;;;;;;;;;;;;;;28.07;41.46;95138.75;4938392;28;20061;-78
2022/06/20 09:48:22;;;;;;;15.50;6.15;;;;;;;27.94;42.75;95145.75;5033827;28;20015;-78
2022/06/20 09:51:23;;;;;;;20.03;6.77;;;;;;;27.98;42.07;95135.72;5051433;28;20052;-78
2022/06/20 09:53:59;;;;;;;13.35;6.18;;;;;;;27.77;42.09;95136.50;4979054;28;20064;-77
2022/06/20 09:56:27;;;;;;;30.15;7.60;;;;;;;27.62;42.75;95141.19;5033999;28;20045;-78
2022/06/20 09:59:11;;;;;;;14.00;6.25;;;;;;;27.69;42.86;95140.41;5033869;28;20053;-77
2022/06/20 10:01:46;;;;;;;16.58;6.05;;;;;;;27.63;42.38;95137.34;5034277;28;20045;-78
2022/06/20 10:04:49;;;;;;;17.55;6.07;;;;;;;27.97;43.13;95139.53;5039567;28;20094;-81
2022/06/20 10:07:31;;;;;;;26.65;6.57;;;;;;;28.17;42.75;95143.38;5049590;28;20048;-80
2022/06/20 10:10:28;;;;;;;11.98;6.13;;;;;;;28.17;42.52;95142.59;5050742;28;20033;-83
2022/06/20 10:13:08;;;;;;;12.93;6.50;;;;;;;27.99;41.82;95134.56;5047971;28;20045;-83
2022/06/20 10:15:55;;;;;;;14.65;5.85;;;;;;;28.00;42.94;95122.56;5043083;28;20080;-83
2022/06/20 10:18:46;;;;;;;29.95;6.50;;;;;;;28.01;43.71;95129.53;5052611;28;20903;-81
2022/06/20 10:21:27;;;;;;;15.05;6.55;;;;;;;27.97;43.50;95126.81;5043015;28;20124;-79
2022/06/20 10:24:12;;;;;;;12.63;6.45;;;;;;;27.86;42.32;95128.00;5033397;28;20044;-80
2022/06/20 10:26:54;;;;;;;13.05;6.05;;;;;;;27.76;43.95;95119.53;5048061;28;20102;-78
2022/06/20 10:29:22;;;;;;;18.88;6.47;;;;;;;27.93;43.49;95119.84;5033530;28;20033;-79
2022/06/20 10:32:12;;;;;;;13.93;6.30;;;;;;;27.89;43.14;95128.00;5056670;28;20514;-82
2022/06/20 10:34:53;;;;;;;15.05;6.28;;;;;;;27.87;42.87;95124.91;5049818;28;20144;-79
2022/06/20 10:37:30;;;;;;;13.77;6.22;;;;;;;27.85;44.08;95121.06;5032859;28;20040;-80
2022/06/20 10:40:24;;;;;;;13.23;6.03;;;;;;;27.63;43.23;95121.88;5052652;28;20049;-79
2022/06/20 10:43:04;;;;;;;13.48;5.47;;;;;;;27.80;40.76;95120.28;5051746;28;20056;-79
2022/06/20 10:45:33;;;;;;;16.13;5.70;;;;;;;28.41;40.60;95119.31;5051795;28;20619;-79
2022/06/20 10:48:01;;;;;;;14.40;5.85;;;;;;;28.91;40.88;95114.78;5052043;28;20037;-79
2022/06/20 10:50:46;;;;;;;16.48;6.65;;;;;;;29.51;39.10;95116.22;5052620;28;20048;-80
2022/06/20 10:53:28;;;;;;;18.80;5.88;;;;;;;29.66;40.35;95116.09;5043178;28;20042;-81
2022/06/20 10:56:06;;;;;;;14.32;5.95;;;;;;;30.21;37.40;95109.69;5048690;28;20037;-81
2022/06/20 10:59:00;;;;;;;15.23;5.95;;;;;;;30.77;37.68;95105.06;5038929;28;20477;-82
2022/06/20 11:01:37;;;;;;;18.00;5.75;;;;;;;30.44;36.34;95107.47;5043074;28;20483;-83
2022/06/20 11:04:34;;;;;;;14.85;5.78;;;;;;;31.35;36.17;95096.78;5039178;28;20048;-82
2022/06/20 11:07:05;;;;;;;12.82;5.70;;;;;;;30.86;36.35;95100.66;5048189;28;20222;-82
2022/06/20 11:09:40;;;;;;;13.38;5.22;;;;;;;30.81;33.88;95098.38;5045550;28;20045;-82
2022/06/20 11:12:18;;;;;;;12.90;5.78;;;;;;;31.44;34.55;95099.72;5027104;28;20052;-82
2022/06/20 11:15:08;;;;;;;12.48;5.80;;;;;;;31.27;33.31;95101.56;5051300;28;20052;-79
2022/06/20 11:17:48;;;;;;;21.70;7.45;;;;;;;31.42;34.58;95096.66;5050831;28;20052;-81
2022/06/20 11:20:20;;;;;;;16.55;5.70;;;;;;;31.03;32.00;95092.66;5050965;28;20041;-80
2022/06/20 11:23:11;;;;;;;10.07;5.25;;;;;;;31.34;31.65;95078.94;5049768;28;20190;-80
2022/06/20 11:25:37;;;;;;;11.18;5.30;;;;;;;31.35;34.40;95085.91;5051604;28;20047;-78
2022/06/20 11:28:28;;;;;;;10.07;5.57;;;;;;;31.82;34.14;95096.72;5051221;28;20040;-78
2022/06/20 11:31:10;;;;;;;10.88;5.18;;;;;;;32.23;32.63;95076.50;5050065;28;20044;-79
2022/06/20 11:34:06;;;;;;;17.30;4.97;;;;;;;31.94;30.45;95085.22;5033043;28;20039;-80
2022/06/20 11:36:53;;;;;;;14.98;5.80;;;;;;;31.73;31.81;95077.47;5031938;28;20037;-79
2022/06/20 11:39:18;;;;;;;13.18;5.43;;;;;;;32.22;30.76;95074.94;5045740;28;20107;-80
2022/06/20 11:41:53;;;;;;;11.77;5.28;;;;;;;32.34;30.81;95083.66;5049304;28;20045;-78
2022/06/20 11:44:21;;;;;;;9.80;5.35;;;;;;;32.55;30.70;95079.69;5047145;28;20453;-78
2022/06/20 11:47:18;;;;;;;11.95;5.07;;;;;;;32.87;30.35;95084.44;5049369;28;20152;-81
2022/06/20 11:50:06;;;;;;;12.60;5.65;;;;;;;33.26;30.14;95077.28;5027443;28;20041;-81
2022/06/20 11:52:56;;;;;;;15.52;5.97;;;;;;;33.33;29.78;95079.84;5045809;28;20045;-82
2022/06/20 11:55:46;;;;;;;15.05;5.47;;;;;;;33.07;30.81;95069.94;5049697;28;20051;-82
2022/06/20 11:58:18;;;;;;;10.05;5.50;;;;;;;33.21;30.76;95069.59;5049248;28;20036;-82
2022/06/20 12:01:02;;;;;;;9.45;5.57;;;;;;;34.16;29.15;95068.66;5034672;28;20116;-81
2022/06/20 12:03:53;;;;;;;14.73;5.63;;;;;;;33.49;29.14;95084.47;5048524;28;20478;-82
2022/06/20 12:06:31;;;;;;;11.93;5.30;;;;;;;33.47;29.96;95053.38;5047816;28;20495;-79
2022/06/20 12:09:26;;;;;;;11.45;5.45;;;;;;;33.79;30.06;95062.66;5049492;28;20037;-81